Little Valley, California
Current Conditions -  °F | °C
As of 9:55 PM on Sunday 25 Jan 2015 (Local Time) from KAAT Reporting Station
Haze Haze  
Wind Chill:   Ceiling: Unl
Heat Index:   Visibility: 6mi
Dew Point: -1°   Wind: 3mph
Humidity: 79%   Direction: 90°E
Pressure: 30.25"   Gusts: NA
Location:  40.9954°N, 121.135°W
Report Text: KAAT 260555Z AUTO 09003KT 6SM HZ CLR 02/M01 A3025 RMK AO2 SLP250 T00221011 10194 20017 $
Loading
Personal Weather Stations






























Interactive Weather Map New forecast layout! Learn more

10-Day Weather Forecast

Advertisements
Track Severe Weather on mobile